createdAt,value
2022-10-09T00:01:08.688Z,92.78
2022-10-09T00:03:38.236Z,92.55
2022-10-09T00:06:07.138Z,92.47
2022-10-09T00:08:35.343Z,92.89
2022-10-09T00:11:07.305Z,92.29
2022-10-09T00:13:34.581Z,92.75
2022-10-09T00:16:09.768Z,92.58
2022-10-09T00:18:37.388Z,92.11
2022-10-09T00:21:06.280Z,92.67
2022-10-09T00:23:33.504Z,93.11
2022-10-09T00:26:20.154Z,92.65
2022-10-09T00:28:48.133Z,92.67
2022-10-09T00:31:16.188Z,93.09
2022-10-09T00:33:44.562Z,93.64
2022-10-09T00:36:15.467Z,93.31
2022-10-09T00:38:42.531Z,93.66
2022-10-09T00:41:21.784Z,93.78
2022-10-09T00:43:54.873Z,93.90
2022-10-09T00:46:45.922Z,94.09
2022-10-09T00:49:21.006Z,94.03
2022-10-09T00:51:50.166Z,94.05
2022-10-09T00:54:20.462Z,94.65
2022-10-09T00:56:49.060Z,93.80
2022-10-09T00:59:18.423Z,94.48
2022-10-09T01:01:46.483Z,94.57
2022-10-09T01:04:13.749Z,94.52
2022-10-09T01:07:05.968Z,94.71
2022-10-09T01:09:42.290Z,94.95
2022-10-09T01:12:20.436Z,94.71
2022-10-09T01:15:05.420Z,94.93
2022-10-09T01:17:39.726Z,94.86
2022-10-09T01:20:29.161Z,94.57
2022-10-09T01:23:05.981Z,95.06
2022-10-09T01:25:46.354Z,94.96
2022-10-09T01:28:15.882Z,94.92
2022-10-09T01:30:43.708Z,95.03
2022-10-09T01:33:11.631Z,95.16
2022-10-09T01:35:40.975Z,95.56
2022-10-09T01:38:08.687Z,95.06
2022-10-09T01:40:38.543Z,95.33
2022-10-09T01:43:05.955Z,95.21
2022-10-09T01:45:41.664Z,95.09
2022-10-09T01:48:13.007Z,95.11
2022-10-09T01:50:48.092Z,95.43
2022-10-09T01:53:19.843Z,95.32
2022-10-09T01:55:56.757Z,95.75
2022-10-09T01:58:52.070Z,95.64
2022-10-09T02:01:34.573Z,95.91
2022-10-09T02:04:05.851Z,95.45
2022-10-09T02:06:34.348Z,95.91
2022-10-09T02:09:04.460Z,96.00
2022-10-09T02:11:33.592Z,95.58
2022-10-09T02:14:00.734Z,95.85
2022-10-09T02:16:43.865Z,95.72
2022-10-09T02:19:17.390Z,95.98
2022-10-09T02:21:54.401Z,96.15
2022-10-09T02:24:23.462Z,96.62
2022-10-09T02:26:53.670Z,96.37
2022-10-09T02:29:22.049Z,96.58
2022-10-09T02:31:49.130Z,96.48
2022-10-09T02:34:20.457Z,96.66
2022-10-09T02:36:48.554Z,96.39
2022-10-09T02:39:15.954Z,96.72
2022-10-09T02:41:43.050Z,95.98
2022-10-09T02:44:10.486Z,96.60
2022-10-09T02:46:38.728Z,96.43
2022-10-09T02:49:06.861Z,95.93
2022-10-09T02:51:35.068Z,96.55
2022-10-09T02:54:03.438Z,96.50
2022-10-09T02:56:30.537Z,96.53
2022-10-09T02:58:58.667Z,96.58
2022-10-09T03:01:26.745Z,96.17
2022-10-09T03:03:54.669Z,96.59
2022-10-09T03:06:26.800Z,96.08
2022-10-09T03:08:54.412Z,96.27
2022-10-09T03:11:23.598Z,96.54
2022-10-09T03:13:51.060Z,96.52
2022-10-09T03:16:21.446Z,96.22
2022-10-09T03:18:49.986Z,96.25
2022-10-09T03:21:22.879Z,96.24
2022-10-09T03:23:51.381Z,96.16
2022-10-09T03:26:21.542Z,95.76
2022-10-09T03:28:50.293Z,95.44
2022-10-09T03:31:39.638Z,95.66
2022-10-09T03:34:07.530Z,95.93
2022-10-09T03:36:34.506Z,95.46
2022-10-09T03:39:01.529Z,95.07
2022-10-09T03:41:28.529Z,95.00
2022-10-09T03:43:55.570Z,94.94
2022-10-09T03:46:22.693Z,94.88
2022-10-09T03:48:49.975Z,94.64
2022-10-09T03:51:17.170Z,94.44
2022-10-09T03:53:44.413Z,94.20
2022-10-09T03:56:11.446Z,94.16
2022-10-09T03:58:38.748Z,93.75
2022-10-09T04:01:05.760Z,93.40
2022-10-09T04:03:32.919Z,93.54
2022-10-09T04:06:00.185Z,92.99
2022-10-09T04:08:27.790Z,92.42
2022-10-09T04:11:01.554Z,92.03
2022-10-09T04:13:28.660Z,91.57
2022-10-09T04:15:57.903Z,91.90
2022-10-09T04:18:26.226Z,91.23
2022-10-09T04:20:55.984Z,90.97
2022-10-09T04:23:26.270Z,90.85
2022-10-09T04:25:58.555Z,90.71
2022-10-09T04:28:27.103Z,90.42
2022-10-09T04:30:55.094Z,89.76
2022-10-09T04:33:25.283Z,89.53
2022-10-09T04:35:54.246Z,89.22
2022-10-09T04:38:22.309Z,88.94
2022-10-09T04:41:00.929Z,88.76
2022-10-09T04:43:28.973Z,88.39
2022-10-09T04:45:57.032Z,88.24
2022-10-09T04:48:25.832Z,87.62
2022-10-09T04:50:52.880Z,87.70
2022-10-09T04:53:20.946Z,87.52
2022-10-09T04:55:47.977Z,87.13
2022-10-09T04:58:15.174Z,86.96
2022-10-09T05:00:46.502Z,86.33
2022-10-09T05:03:16.982Z,85.62
2022-10-09T05:09:28.509Z,85.37
2022-10-09T05:12:36.088Z,85.00
2022-10-09T05:15:03.351Z,84.29
2022-10-09T05:17:31.005Z,83.18
2022-10-09T05:19:58.032Z,82.50
2022-10-09T05:22:26.360Z,81.37
2022-10-09T05:24:56.512Z,81.51
2022-10-09T05:27:25.408Z,81.05
2022-10-09T05:29:54.497Z,80.12
2022-10-09T05:32:27.503Z,79.77
2022-10-09T05:34:59.892Z,78.87
2022-10-09T05:37:31.022Z,78.27
2022-10-09T05:40:06.709Z,77.83
2022-10-09T05:42:37.314Z,76.52
2022-10-09T05:45:10.497Z,76.09
2022-10-09T05:47:48.186Z,76.09
2022-10-09T05:50:21.625Z,74.95
2022-10-09T05:52:51.532Z,75.05
2022-10-09T05:55:20.359Z,74.51
2022-10-09T05:57:50.771Z,73.16
2022-10-09T06:00:18.989Z,73.13
2022-10-09T06:02:47.783Z,72.26
2022-10-09T06:05:15.734Z,72.02
2022-10-09T06:07:45.832Z,71.10
2022-10-09T06:10:16.285Z,68.95
2022-10-09T06:12:46.161Z,69.41
2022-10-09T06:15:25.866Z,68.74
2022-10-09T06:17:53.475Z,69.51
2022-10-09T06:20:20.757Z,69.06
2022-10-09T06:22:48.104Z,68.25
2022-10-09T06:25:15.351Z,67.74
2022-10-09T06:27:42.414Z,66.70
2022-10-09T06:30:10.202Z,65.44
2022-10-09T06:32:37.338Z,65.20
2022-10-09T06:35:04.532Z,65.42
2022-10-09T06:37:31.953Z,63.73
2022-10-09T06:39:58.890Z,62.95
2022-10-09T06:42:25.845Z,62.85
2022-10-09T06:44:57.575Z,63.60
2022-10-09T06:47:24.565Z,63.36
2022-10-09T06:49:51.826Z,62.95
2022-10-09T06:52:18.964Z,62.24
2022-10-09T06:54:46.869Z,61.28
2022-10-09T06:57:14.351Z,59.69
2022-10-09T06:59:41.465Z,58.92
2022-10-09T07:02:09.187Z,59.10
2022-10-09T07:04:36.392Z,57.70
2022-10-09T07:07:03.840Z,56.72
2022-10-09T07:09:31.520Z,57.53
2022-10-09T07:11:58.623Z,56.58
2022-10-09T07:14:25.811Z,55.60
2022-10-09T07:16:53.469Z,56.45
2022-10-09T07:19:21.813Z,55.47
2022-10-09T07:21:50.489Z,54.81
2022-10-09T07:24:20.612Z,54.98
2022-10-09T07:26:48.571Z,54.64
2022-10-09T07:29:18.070Z,53.39
2022-10-09T07:31:45.837Z,52.23
2022-10-09T07:34:13.101Z,52.96
2022-10-09T07:36:40.062Z,52.74
2022-10-09T07:39:07.294Z,52.14
2022-10-09T07:41:34.956Z,52.17
2022-10-09T07:44:02.341Z,51.22
2022-10-09T07:46:33.347Z,50.18
2022-10-09T07:49:01.673Z,50.60
2022-10-09T07:51:29.645Z,50.60
2022-10-09T07:54:02.040Z,51.11
2022-10-09T07:56:32.225Z,50.30
2022-10-09T07:59:02.190Z,49.26
2022-10-09T08:01:31.440Z,48.09
2022-10-09T08:03:59.993Z,48.47
2022-10-09T08:06:27.850Z,48.37
2022-10-09T08:08:57.097Z,48.56
2022-10-09T08:11:26.441Z,48.60
2022-10-09T08:13:54.126Z,48.44
2022-10-09T08:16:23.345Z,47.73
2022-10-09T08:18:55.206Z,46.68
2022-10-09T08:21:23.060Z,46.93
2022-10-09T08:23:54.411Z,48.09
2022-10-09T08:26:23.912Z,47.21
2022-10-09T08:28:59.813Z,46.99
2022-10-09T08:31:28.405Z,46.87
2022-10-09T08:33:57.472Z,46.07
2022-10-09T08:36:25.228Z,46.19
2022-10-09T08:38:52.471Z,45.94
2022-10-09T08:41:34.687Z,45.02
2022-10-09T08:44:30.204Z,44.63
2022-10-09T08:47:03.630Z,44.25
2022-10-09T08:49:36.779Z,44.02
2022-10-09T08:52:30.043Z,43.73
2022-10-09T08:55:01.413Z,44.42
2022-10-09T08:57:34.658Z,43.41
2022-10-09T09:00:01.750Z,42.72
2022-10-09T09:02:56.120Z,42.33
2022-10-09T09:05:39.782Z,42.58
2022-10-09T09:08:13.829Z,42.37
2022-10-09T09:10:47.274Z,41.93
2022-10-09T09:13:24.320Z,41.56
2022-10-09T09:16:02.901Z,41.52
2022-10-09T09:18:42.499Z,41.89
2022-10-09T09:21:17.701Z,41.96
2022-10-09T09:23:47.926Z,41.62
2022-10-09T09:26:18.962Z,41.72
2022-10-09T09:28:49.707Z,41.83
2022-10-09T09:31:37.613Z,41.91
2022-10-09T09:34:11.687Z,41.32
2022-10-09T09:36:55.037Z,41.28
2022-10-09T09:42:18.833Z,40.45
2022-10-09T09:45:07.965Z,40.25
2022-10-09T09:47:42.299Z,39.64
2022-10-09T09:50:23.425Z,39.32
2022-10-09T09:52:57.201Z,38.60
2022-10-09T09:55:27.969Z,37.51
2022-10-09T09:58:02.628Z,37.54
2022-10-09T10:00:29.775Z,38.11
2022-10-09T10:03:23.731Z,38.38
2022-10-09T10:05:51.808Z,39.26
2022-10-09T10:08:34.910Z,39.53
2022-10-09T10:11:05.952Z,39.64
2022-10-09T10:13:38.195Z,39.73
2022-10-09T10:16:08.288Z,39.54
2022-10-09T10:18:40.928Z,39.20
2022-10-09T10:21:17.488Z,39.44
2022-10-09T10:23:58.685Z,39.32
2022-10-09T10:26:35.820Z,39.44
2022-10-09T10:29:08.560Z,39.35
2022-10-09T10:31:47.840Z,39.71
2022-10-09T10:34:39.186Z,39.26
2022-10-09T10:37:15.077Z,38.93
2022-10-09T10:39:49.580Z,39.03
2022-10-09T10:42:24.656Z,38.80
2022-10-09T10:45:04.034Z,38.06
2022-10-09T10:47:38.291Z,37.02
2022-10-09T10:50:12.562Z,36.34
2022-10-09T10:52:55.588Z,36.71
2022-10-09T10:55:52.462Z,35.77
2022-10-09T10:58:44.698Z,35.14
2022-10-09T11:01:27.619Z,33.99
2022-10-09T11:04:15.447Z,33.64
2022-10-09T11:06:55.730Z,33.35
2022-10-09T11:09:37.454Z,33.44
2022-10-09T11:12:19.320Z,34.06
2022-10-09T11:14:56.130Z,33.90
2022-10-09T11:17:36.464Z,35.36
2022-10-09T11:20:15.687Z,35.88
2022-10-09T11:22:58.431Z,35.67
2022-10-09T11:25:59.018Z,35.88
2022-10-09T11:28:37.811Z,35.63
2022-10-09T11:31:14.511Z,35.94
2022-10-09T11:33:47.094Z,36.56
2022-10-09T11:36:27.144Z,35.72
2022-10-09T11:39:01.056Z,35.93
2022-10-09T11:41:30.945Z,34.28
2022-10-09T11:44:21.195Z,34.25
2022-10-09T11:46:54.298Z,34.69
2022-10-09T11:49:38.729Z,35.06
2022-10-09T11:52:42.675Z,35.47
2022-10-09T11:55:25.322Z,35.36
2022-10-09T11:57:53.383Z,36.04
2022-10-09T12:00:33.039Z,36.07
2022-10-09T12:03:03.667Z,36.40
2022-10-09T12:05:46.517Z,36.51
2022-10-09T12:08:19.440Z,36.86
2022-10-09T12:10:54.229Z,37.24
2022-10-09T12:13:47.968Z,37.60
2022-10-09T12:16:40.662Z,37.90
2022-10-09T12:19:31.272Z,37.68
2022-10-09T12:22:06.447Z,38.11
2022-10-09T12:24:50.651Z,38.61
2022-10-09T12:27:25.368Z,38.82
2022-10-09T12:30:04.744Z,39.15
2022-10-09T12:32:37.578Z,39.17
2022-10-09T12:35:25.942Z,39.16
2022-10-09T12:37:53.196Z,38.86
2022-10-09T12:40:25.351Z,38.55
2022-10-09T12:42:54.477Z,39.08
2022-10-09T12:45:26.087Z,38.96
2022-10-09T12:47:54.598Z,38.80
2022-10-09T12:50:32.372Z,39.23
2022-10-09T12:53:06.401Z,39.21
2022-10-09T12:55:36.173Z,39.33
2022-10-09T12:58:26.330Z,39.37
2022-10-09T13:01:02.847Z,39.60
2022-10-09T13:03:32.853Z,40.08
2022-10-09T13:06:01.282Z,40.10
2022-10-09T13:08:31.367Z,40.55
2022-10-09T13:11:21.318Z,40.60
2022-10-09T13:13:54.019Z,40.64
2022-10-09T13:16:21.814Z,40.49
2022-10-09T13:19:03.089Z,40.73
2022-10-09T13:21:35.370Z,41.23
2022-10-09T13:24:11.096Z,41.19
2022-10-09T13:26:40.861Z,41.73
2022-10-09T13:29:09.167Z,41.73
2022-10-09T13:31:37.121Z,42.68
2022-10-09T13:34:12.713Z,42.48
2022-10-09T13:36:40.591Z,42.84
2022-10-09T13:39:14.629Z,43.52
2022-10-09T13:41:43.334Z,43.44
2022-10-09T13:44:10.460Z,44.09
2022-10-09T13:46:37.591Z,43.87
2022-10-09T13:49:04.759Z,44.17
2022-10-09T13:51:32.896Z,44.44
2022-10-09T13:53:59.850Z,44.48
2022-10-09T13:56:27.857Z,44.57
2022-10-09T13:58:55.193Z,44.19
2022-10-09T14:01:22.738Z,44.43
2022-10-09T14:03:50.707Z,46.22
2022-10-09T14:06:17.894Z,49.40
2022-10-09T14:08:44.969Z,51.71
2022-10-09T14:11:11.925Z,54.35
2022-10-09T14:13:39.030Z,56.97
2022-10-09T14:16:07.903Z,58.43
2022-10-09T14:18:35.270Z,60.04
2022-10-09T14:21:12.512Z,61.72
2022-10-09T14:23:42.269Z,62.94
2022-10-09T14:26:10.091Z,63.07
2022-10-09T14:28:38.197Z,64.08
2022-10-09T14:31:07.643Z,64.92
2022-10-09T14:33:34.989Z,66.00
2022-10-09T14:36:10.312Z,66.36
2022-10-09T14:38:42.093Z,67.15
2022-10-09T14:41:10.217Z,66.87
2022-10-09T14:43:37.145Z,66.99
2022-10-09T14:46:13.304Z,68.03
2022-10-09T14:48:40.546Z,68.14
2022-10-09T14:51:11.214Z,68.47
2022-10-09T14:53:38.504Z,68.43
2022-10-09T14:56:08.362Z,69.39
2022-10-09T14:58:36.861Z,69.98
2022-10-09T15:01:04.871Z,69.90
2022-10-09T15:03:32.328Z,69.98
2022-10-09T15:06:06.055Z,70.77
2022-10-09T15:08:34.858Z,71.33
2022-10-09T15:11:02.379Z,71.24
2022-10-09T15:13:29.883Z,71.67
2022-10-09T15:16:04.779Z,71.89
2022-10-09T15:18:32.078Z,72.47
2022-10-09T15:21:01.871Z,73.28
2022-10-09T15:23:29.666Z,74.87
2022-10-09T15:26:00.868Z,76.00
2022-10-09T15:28:28.092Z,77.80
2022-10-09T15:30:58.363Z,78.50
2022-10-09T15:33:26.117Z,80.24
2022-10-09T15:35:54.161Z,81.04
2022-10-09T15:38:23.360Z,82.10
2022-10-09T15:40:57.235Z,82.88
2022-10-09T15:43:26.411Z,83.51
2022-10-09T15:46:02.585Z,84.74
2022-10-09T15:48:31.067Z,85.51
2022-10-09T15:50:58.510Z,86.18
2022-10-09T15:53:25.807Z,86.49
2022-10-09T15:55:53.470Z,87.19
2022-10-09T15:58:21.679Z,87.72
2022-10-09T16:00:49.919Z,87.48
2022-10-09T16:03:18.207Z,88.71
2022-10-09T16:05:49.526Z,87.54
2022-10-09T16:08:19.117Z,89.72
2022-10-09T16:10:49.561Z,89.35
2022-10-09T16:13:16.811Z,89.58
2022-10-09T16:15:48.216Z,89.22
2022-10-09T16:18:22.486Z,89.03
2022-10-09T16:20:50.379Z,90.30
2022-10-09T16:23:18.323Z,90.45
2022-10-09T16:25:56.540Z,91.49
2022-10-09T16:28:24.189Z,91.29
2022-10-09T16:30:51.905Z,91.30
2022-10-09T16:33:19.608Z,91.12
2022-10-09T16:35:46.708Z,91.02
2022-10-09T16:38:17.709Z,90.93
2022-10-09T16:41:01.494Z,90.76
2022-10-09T16:43:32.877Z,91.49
2022-10-09T16:46:29.452Z,91.23
2022-10-09T16:48:58.534Z,92.10
2022-10-09T16:51:33.148Z,92.52
2022-10-09T16:54:02.430Z,93.03
2022-10-09T16:56:35.159Z,92.89
2022-10-09T16:59:05.336Z,92.39
2022-10-09T17:01:33.674Z,92.55
2022-10-09T17:04:02.594Z,92.01
2022-10-09T17:06:31.110Z,93.23
2022-10-09T17:08:59.827Z,92.17
2022-10-09T17:11:29.935Z,92.10
2022-10-09T17:13:57.879Z,92.25
2022-10-09T17:16:28.503Z,92.67
2022-10-09T17:18:58.273Z,92.69
2022-10-09T17:21:29.289Z,91.49
2022-10-09T17:24:01.511Z,91.36
2022-10-09T17:26:31.216Z,91.36
2022-10-09T17:29:00.197Z,91.78
2022-10-09T17:31:29.327Z,91.34
2022-10-09T17:34:00.457Z,91.33
2022-10-09T17:36:34.450Z,90.43
2022-10-09T17:39:02.232Z,90.65
2022-10-09T17:41:30.425Z,90.86
2022-10-09T17:43:57.872Z,89.54
2022-10-09T17:46:28.224Z,89.85
2022-10-09T17:49:00.671Z,90.63
2022-10-09T17:51:39.673Z,90.61
2022-10-09T17:54:17.148Z,90.80
2022-10-09T17:56:45.057Z,90.38
2022-10-09T17:59:12.581Z,90.88
2022-10-09T18:01:39.909Z,90.49
2022-10-09T18:04:19.111Z,91.61
2022-10-09T18:06:47.061Z,92.48
2022-10-09T18:09:14.597Z,91.91
2022-10-09T18:11:44.233Z,92.13
2022-10-09T18:14:34.021Z,93.45
2022-10-09T18:17:02.302Z,92.92
2022-10-09T18:19:30.381Z,93.77
2022-10-09T18:21:58.066Z,94.50
2022-10-09T18:24:27.044Z,94.57
2022-10-09T18:26:54.925Z,94.26
2022-10-09T18:29:23.772Z,94.71
2022-10-09T18:31:55.812Z,94.34
2022-10-09T18:34:27.952Z,95.11
2022-10-09T18:36:56.065Z,94.53
2022-10-09T18:39:23.243Z,94.69
2022-10-09T18:41:50.412Z,95.26
2022-10-09T18:44:19.771Z,95.72
2022-10-09T18:46:51.514Z,96.02
2022-10-09T18:49:21.938Z,95.95
2022-10-09T18:51:49.822Z,96.40
2022-10-09T18:54:19.691Z,96.53
2022-10-09T18:56:47.410Z,96.31
2022-10-09T18:59:18.682Z,97.29
2022-10-09T19:01:46.389Z,97.14
2022-10-09T19:04:13.737Z,97.99
2022-10-09T19:06:40.941Z,98.27
2022-10-09T19:09:08.685Z,98.16
2022-10-09T19:11:37.123Z,98.63
2022-10-09T19:14:04.315Z,99.11
2022-10-09T19:16:34.000Z,99.32
2022-10-09T19:19:01.509Z,98.96
2022-10-09T19:21:28.619Z,99.18
2022-10-09T19:23:58.896Z,99.36
2022-10-09T19:26:26.753Z,99.74
2022-10-09T19:28:55.077Z,100.00
2022-10-09T19:31:22.594Z,100.00
2022-10-09T19:33:49.896Z,100.00
2022-10-09T19:36:17.909Z,99.97
2022-10-09T19:38:45.922Z,99.16
2022-10-09T19:41:15.410Z,99.69
2022-10-09T19:43:42.924Z,99.66
2022-10-09T19:46:17.359Z,99.10
2022-10-09T19:48:45.957Z,98.70
2022-10-09T19:51:16.381Z,98.84
2022-10-09T19:53:43.782Z,98.63
2022-10-09T19:56:13.107Z,98.58
2022-10-09T19:58:42.094Z,98.39
2022-10-09T20:01:14.543Z,98.26
2022-10-09T20:03:42.742Z,98.85
2022-10-09T20:06:10.771Z,99.29
2022-10-09T20:08:39.655Z,99.32
2022-10-09T20:11:07.665Z,99.91
2022-10-09T20:13:37.356Z,100.00
2022-10-09T20:16:08.561Z,99.58
2022-10-09T20:18:35.721Z,100.00
2022-10-09T20:21:02.801Z,99.70
2022-10-09T20:23:29.739Z,99.81
2022-10-09T20:26:11.282Z,100.00
2022-10-09T20:28:38.459Z,99.93
2022-10-09T20:31:07.983Z,100.00
2022-10-09T20:33:38.967Z,99.41
2022-10-09T20:36:07.361Z,100.00
2022-10-09T20:38:35.285Z,100.00
2022-10-09T20:41:04.560Z,99.71
2022-10-09T20:43:31.880Z,100.00
2022-10-09T20:45:59.185Z,100.00
2022-10-09T20:48:26.210Z,100.00
2022-10-09T20:50:53.387Z,100.00
2022-10-09T20:53:20.775Z,100.00
2022-10-09T20:55:47.908Z,99.84
2022-10-09T20:58:14.863Z,100.00
2022-10-09T21:00:43.323Z,100.00
2022-10-09T21:03:12.581Z,100.00
2022-10-09T21:05:41.916Z,100.00
2022-10-09T21:08:09.647Z,99.97
2022-10-09T21:10:43.353Z,100.00
2022-10-09T21:13:10.415Z,100.00
2022-10-09T21:15:45.367Z,100.00
2022-10-09T21:18:14.114Z,100.00
2022-10-09T21:20:42.971Z,100.00
2022-10-09T21:23:12.577Z,100.00
2022-10-09T21:25:47.547Z,100.00
2022-10-09T21:28:14.875Z,100.00
2022-10-09T21:30:41.985Z,100.00
2022-10-09T21:33:09.892Z,100.00
2022-10-09T21:35:42.024Z,100.00
2022-10-09T21:38:15.193Z,100.00
2022-10-09T21:40:43.083Z,100.00
2022-10-09T21:43:10.971Z,100.00
2022-10-09T21:45:39.062Z,100.00
2022-10-09T21:48:07.051Z,100.00
2022-10-09T21:50:34.639Z,100.00
2022-10-09T21:53:01.834Z,100.00
2022-10-09T21:55:29.219Z,100.00
2022-10-09T21:57:56.612Z,100.00
2022-10-09T22:00:24.379Z,99.85
2022-10-09T22:02:51.889Z,99.99
2022-10-09T22:05:19.051Z,100.00
2022-10-09T22:07:46.088Z,99.38
2022-10-09T22:10:13.122Z,99.62
2022-10-09T22:12:40.262Z,99.39
2022-10-09T22:15:08.248Z,98.88
2022-10-09T22:17:35.956Z,98.92
2022-10-09T22:20:03.547Z,98.75
2022-10-09T22:22:31.443Z,98.93
2022-10-09T22:25:00.409Z,97.72
2022-10-09T22:27:27.491Z,97.57
2022-10-09T22:29:55.487Z,96.10
2022-10-09T22:32:23.172Z,96.21
2022-10-09T22:34:51.823Z,95.06
2022-10-09T22:37:18.859Z,94.39
2022-10-09T22:39:45.935Z,93.88
2022-10-09T22:42:12.949Z,94.18
2022-10-09T22:44:40.068Z,94.11
2022-10-09T22:47:07.034Z,94.54
2022-10-09T22:49:34.803Z,94.65
2022-10-09T22:52:02.699Z,94.17
2022-10-09T22:54:29.873Z,94.49
2022-10-09T22:56:56.915Z,94.80
2022-10-09T22:59:23.991Z,94.56
2022-10-09T23:01:55.946Z,94.23
2022-10-09T23:04:23.593Z,94.48
2022-10-09T23:06:56.394Z,94.37
2022-10-09T23:09:28.426Z,94.32
2022-10-09T23:11:56.774Z,94.45
2022-10-09T23:14:24.430Z,94.59
2022-10-09T23:16:51.490Z,94.89
2022-10-09T23:19:18.692Z,94.83
2022-10-09T23:21:46.706Z,94.65
2022-10-09T23:24:17.862Z,94.72
2022-10-09T23:26:46.683Z,94.74
2022-10-09T23:29:18.824Z,94.89
2022-10-09T23:31:46.170Z,94.64
2022-10-09T23:34:13.526Z,94.49
2022-10-09T23:36:40.579Z,94.32
2022-10-09T23:39:07.819Z,94.92
2022-10-09T23:41:35.641Z,94.46
2022-10-09T23:44:03.757Z,94.22
2022-10-09T23:46:34.751Z,94.38
2022-10-09T23:49:02.209Z,94.29
2022-10-09T23:51:30.258Z,93.72
2022-10-09T23:53:58.504Z,94.54
2022-10-09T23:56:30.456Z,94.80
2022-10-09T23:58:59.395Z,94.69
